sensor_id;sensor_type;location;lat;lon;timestamp;P1;durP1;ratioP1;P2;durP2;ratioP2
61572;SDS011;47465;43.094;12.434;2023-08-20T00:00:28;15.07;;;13.88;;
61572;SDS011;47465;43.094;12.434;2023-08-20T00:02:56;15.35;;;13.77;;
61572;SDS011;47465;43.094;12.434;2023-08-20T00:05:24;14.05;;;12.95;;
61572;SDS011;47465;43.094;12.434;2023-08-20T00:07:51;13.50;;;12.38;;
61572;SDS011;47465;43.094;12.434;2023-08-20T00:10:16;13.65;;;12.55;;
61572;SDS011;47465;43.094;12.434;2023-08-20T00:12:43;14.38;;;13.25;;
61572;SDS011;47465;43.094;12.434;2023-08-20T00:15:10;14.25;;;13.15;;
61572;SDS011;47465;43.094;12.434;2023-08-20T00:17:37;14.15;;;13.00;;
61572;SDS011;47465;43.094;12.434;2023-08-20T00:20:05;14.30;;;13.10;;
61572;SDS011;47465;43.094;12.434;2023-08-20T00:22:38;14.07;;;12.98;;
61572;SDS011;47465;43.094;12.434;2023-08-20T00:25:05;15.85;;;14.68;;
61572;SDS011;47465;43.094;12.434;2023-08-20T00:27:32;15.27;;;14.30;;
61572;SDS011;47465;43.094;12.434;2023-08-20T00:29:58;14.95;;;13.90;;
61572;SDS011;47465;43.094;12.434;2023-08-20T00:32:25;15.35;;;14.18;;
61572;SDS011;47465;43.094;12.434;2023-08-20T00:34:51;14.73;;;13.63;;
61572;SDS011;47465;43.094;12.434;2023-08-20T00:37:17;14.60;;;13.52;;
61572;SDS011;47465;43.094;12.434;2023-08-20T00:39:42;16.23;;;14.73;;
61572;SDS011;47465;43.094;12.434;2023-08-20T00:42:08;14.77;;;13.70;;
61572;SDS011;47465;43.094;12.434;2023-08-20T00:44:34;16.27;;;15.10;;
61572;SDS011;47465;43.094;12.434;2023-08-20T00:47:01;16.40;;;15.13;;
61572;SDS011;47465;43.094;12.434;2023-08-20T00:49:29;15.77;;;14.57;;
61572;SDS011;47465;43.094;12.434;2023-08-20T00:51:56;15.95;;;14.75;;
61572;SDS011;47465;43.094;12.434;2023-08-20T00:54:23;17.23;;;15.93;;
61572;SDS011;47465;43.094;12.434;2023-08-20T00:56:54;17.05;;;15.85;;
61572;SDS011;47465;43.094;12.434;2023-08-20T00:59:20;16.10;;;14.77;;
61572;SDS011;47465;43.094;12.434;2023-08-20T01:01:46;16.00;;;14.70;;
61572;SDS011;47465;43.094;12.434;2023-08-20T01:04:12;16.13;;;14.98;;
61572;SDS011;47465;43.094;12.434;2023-08-20T01:06:42;15.38;;;14.18;;
61572;SDS011;47465;43.094;12.434;2023-08-20T01:09:14;16.17;;;14.80;;
61572;SDS011;47465;43.094;12.434;2023-08-20T01:11:47;17.38;;;16.15;;
61572;SDS011;47465;43.094;12.434;2023-08-20T01:14:17;16.65;;;15.45;;
61572;SDS011;47465;43.094;12.434;2023-08-20T01:16:43;17.15;;;15.73;;
61572;SDS011;47465;43.094;12.434;2023-08-20T01:19:10;17.13;;;15.73;;
61572;SDS011;47465;43.094;12.434;2023-08-20T01:21:43;16.52;;;15.18;;
61572;SDS011;47465;43.094;12.434;2023-08-20T01:24:20;16.52;;;15.32;;
61572;SDS011;47465;43.094;12.434;2023-08-20T01:27:01;16.38;;;15.10;;
61572;SDS011;47465;43.094;12.434;2023-08-20T01:29:37;16.75;;;15.43;;
61572;SDS011;47465;43.094;12.434;2023-08-20T01:32:04;17.30;;;16.08;;
61572;SDS011;47465;43.094;12.434;2023-08-20T01:34:30;15.82;;;14.70;;
61572;SDS011;47465;43.094;12.434;2023-08-20T01:36:57;16.42;;;14.93;;
61572;SDS011;47465;43.094;12.434;2023-08-20T01:39:22;16.05;;;14.95;;
61572;SDS011;47465;43.094;12.434;2023-08-20T01:41:48;16.10;;;14.90;;
61572;SDS011;47465;43.094;12.434;2023-08-20T01:44:14;17.50;;;15.82;;
61572;SDS011;47465;43.094;12.434;2023-08-20T01:46:42;17.10;;;15.90;;
61572;SDS011;47465;43.094;12.434;2023-08-20T01:49:08;15.63;;;14.45;;
61572;SDS011;47465;43.094;12.434;2023-08-20T01:51:33;17.02;;;15.82;;
61572;SDS011;47465;43.094;12.434;2023-08-20T01:54:01;17.35;;;16.02;;
61572;SDS011;47465;43.094;12.434;2023-08-20T01:56:27;19.00;;;17.50;;
61572;SDS011;47465;43.094;12.434;2023-08-20T01:58:53;17.08;;;15.82;;
61572;SDS011;47465;43.094;12.434;2023-08-20T02:01:19;17.65;;;16.40;;
61572;SDS011;47465;43.094;12.434;2023-08-20T02:03:46;18.40;;;17.05;;
61572;SDS011;47465;43.094;12.434;2023-08-20T02:06:12;17.58;;;16.15;;
61572;SDS011;47465;43.094;12.434;2023-08-20T02:08:38;18.88;;;17.45;;
61572;SDS011;47465;43.094;12.434;2023-08-20T02:11:04;17.98;;;16.77;;
61572;SDS011;47465;43.094;12.434;2023-08-20T02:13:30;18.33;;;17.02;;
61572;SDS011;47465;43.094;12.434;2023-08-20T02:15:59;19.58;;;18.17;;
61572;SDS011;47465;43.094;12.434;2023-08-20T02:18:26;20.15;;;18.55;;
61572;SDS011;47465;43.094;12.434;2023-08-20T02:20:53;19.83;;;18.38;;
61572;SDS011;47465;43.094;12.434;2023-08-20T02:23:19;20.13;;;18.67;;
61572;SDS011;47465;43.094;12.434;2023-08-20T02:25:46;18.92;;;17.65;;
61572;SDS011;47465;43.094;12.434;2023-08-20T02:28:12;20.30;;;18.70;;
61572;SDS011;47465;43.094;12.434;2023-08-20T02:30:39;18.83;;;17.38;;
61572;SDS011;47465;43.094;12.434;2023-08-20T02:33:06;20.98;;;19.48;;
61572;SDS011;47465;43.094;12.434;2023-08-20T02:35:31;20.88;;;19.27;;
61572;SDS011;47465;43.094;12.434;2023-08-20T02:37:59;22.40;;;20.50;;
61572;SDS011;47465;43.094;12.434;2023-08-20T02:40:24;20.95;;;19.38;;
61572;SDS011;47465;43.094;12.434;2023-08-20T02:42:50;21.88;;;20.35;;
61572;SDS011;47465;43.094;12.434;2023-08-20T02:45:16;22.13;;;20.42;;
61572;SDS011;47465;43.094;12.434;2023-08-20T02:47:42;23.27;;;21.35;;
61572;SDS011;47465;43.094;12.434;2023-08-20T02:50:08;23.35;;;21.63;;
61572;SDS011;47465;43.094;12.434;2023-08-20T02:52:34;23.83;;;21.95;;
61572;SDS011;47465;43.094;12.434;2023-08-20T02:55:01;24.48;;;22.67;;
61572;SDS011;47465;43.094;12.434;2023-08-20T02:57:29;23.65;;;21.88;;
61572;SDS011;47465;43.094;12.434;2023-08-20T02:59:55;25.95;;;24.15;;
61572;SDS011;47465;43.094;12.434;2023-08-20T03:02:21;26.80;;;24.77;;
61572;SDS011;47465;43.094;12.434;2023-08-20T03:04:47;26.30;;;24.40;;
61572;SDS011;47465;43.094;12.434;2023-08-20T03:07:13;25.95;;;23.85;;
61572;SDS011;47465;43.094;12.434;2023-08-20T03:09:39;26.55;;;24.55;;
61572;SDS011;47465;43.094;12.434;2023-08-20T03:12:06;25.45;;;23.73;;
61572;SDS011;47465;43.094;12.434;2023-08-20T03:14:33;25.83;;;23.83;;
61572;SDS011;47465;43.094;12.434;2023-08-20T03:16:58;26.85;;;24.80;;
61572;SDS011;47465;43.094;12.434;2023-08-20T03:19:24;26.20;;;24.38;;
61572;SDS011;47465;43.094;12.434;2023-08-20T03:21:50;29.75;;;27.35;;
61572;SDS011;47465;43.094;12.434;2023-08-20T03:24:16;27.45;;;25.58;;
61572;SDS011;47465;43.094;12.434;2023-08-20T03:26:42;1506.38;;;755.90;;
61572;SDS011;47465;43.094;12.434;2023-08-20T03:29:09;1999.90;;;999.90;;
61572;SDS011;47465;43.094;12.434;2023-08-20T03:31:35;1999.90;;;999.90;;
61572;SDS011;47465;43.094;12.434;2023-08-20T03:34:00;1999.90;;;999.90;;
61572;SDS011;47465;43.094;12.434;2023-08-20T03:36:26;1999.90;;;999.90;;
61572;SDS011;47465;43.094;12.434;2023-08-20T03:38:52;1999.90;;;999.90;;
61572;SDS011;47465;43.094;12.434;2023-08-20T03:41:18;1999.90;;;999.90;;
61572;SDS011;47465;43.094;12.434;2023-08-20T03:43:44;1999.90;;;999.90;;
61572;SDS011;47465;43.094;12.434;2023-08-20T03:46:11;1999.90;;;999.90;;
61572;SDS011;47465;43.094;12.434;2023-08-20T03:48:37;1999.90;;;999.90;;
61572;SDS011;47465;43.094;12.434;2023-08-20T03:51:03;1999.90;;;999.90;;
61572;SDS011;47465;43.094;12.434;2023-08-20T03:53:28;1999.90;;;999.90;;
61572;SDS011;47465;43.094;12.434;2023-08-20T03:55:54;1999.90;;;999.90;;
61572;SDS011;47465;43.094;12.434;2023-08-20T03:58:20;1999.90;;;999.90;;
61572;SDS011;47465;43.094;12.434;2023-08-20T04:00:46;1999.90;;;999.90;;
61572;SDS011;47465;43.094;12.434;2023-08-20T04:03:13;1999.90;;;999.90;;
61572;SDS011;47465;43.094;12.434;2023-08-20T04:05:39;1999.90;;;999.90;;
61572;SDS011;47465;43.094;12.434;2023-08-20T04:08:05;1999.90;;;999.90;;
61572;SDS011;47465;43.094;12.434;2023-08-20T04:10:31;1999.90;;;999.90;;
61572;SDS011;47465;43.094;12.434;2023-08-20T04:12:57;1999.90;;;999.90;;
61572;SDS011;47465;43.094;12.434;2023-08-20T04:15:24;1999.90;;;999.90;;
61572;SDS011;47465;43.094;12.434;2023-08-20T04:17:50;1999.90;;;999.90;;
61572;SDS011;47465;43.094;12.434;2023-08-20T04:20:17;1999.90;;;999.90;;
61572;SDS011;47465;43.094;12.434;2023-08-20T04:22:43;1999.90;;;999.90;;
61572;SDS011;47465;43.094;12.434;2023-08-20T04:25:08;1999.90;;;999.90;;
61572;SDS011;47465;43.094;12.434;2023-08-20T04:27:34;1999.90;;;999.90;;
61572;SDS011;47465;43.094;12.434;2023-08-20T04:30:00;1999.90;;;999.90;;
61572;SDS011;47465;43.094;12.434;2023-08-20T04:32:26;1999.90;;;999.90;;
61572;SDS011;47465;43.094;12.434;2023-08-20T04:34:52;1999.90;;;999.90;;
61572;SDS011;47465;43.094;12.434;2023-08-20T04:37:20;1999.90;;;999.90;;
61572;SDS011;47465;43.094;12.434;2023-08-20T04:39:46;1999.90;;;999.90;;
61572;SDS011;47465;43.094;12.434;2023-08-20T04:42:12;1999.90;;;999.90;;
61572;SDS011;47465;43.094;12.434;2023-08-20T04:44:38;1999.90;;;999.90;;
61572;SDS011;47465;43.094;12.434;2023-08-20T04:47:03;1999.90;;;999.90;;
61572;SDS011;47465;43.094;12.434;2023-08-20T04:49:29;1999.90;;;999.90;;
61572;SDS011;47465;43.094;12.434;2023-08-20T04:51:55;1999.90;;;999.90;;
61572;SDS011;47465;43.094;12.434;2023-08-20T04:54:22;1999.90;;;999.90;;
61572;SDS011;47465;43.094;12.434;2023-08-20T04:56:48;1999.90;;;999.90;;
61572;SDS011;47465;43.094;12.434;2023-08-20T04:59:14;1999.90;;;999.90;;
61572;SDS011;47465;43.094;12.434;2023-08-20T05:01:40;1999.90;;;999.90;;
61572;SDS011;47465;43.094;12.434;2023-08-20T05:04:06;1999.90;;;999.90;;
61572;SDS011;47465;43.094;12.434;2023-08-20T05:06:31;1999.90;;;999.90;;
61572;SDS011;47465;43.094;12.434;2023-08-20T05:08:57;1999.90;;;999.90;;
61572;SDS011;47465;43.094;12.434;2023-08-20T05:11:24;1999.90;;;999.90;;
61572;SDS011;47465;43.094;12.434;2023-08-20T05:13:50;1999.90;;;999.90;;
61572;SDS011;47465;43.094;12.434;2023-08-20T05:16:16;1999.90;;;999.90;;
61572;SDS011;47465;43.094;12.434;2023-08-20T05:18:42;1999.90;;;999.90;;
61572;SDS011;47465;43.094;12.434;2023-08-20T05:21:08;1999.90;;;999.90;;
61572;SDS011;47465;43.094;12.434;2023-08-20T05:26:02;1999.90;;;999.90;;
61572;SDS011;47465;43.094;12.434;2023-08-20T05:28:29;1999.90;;;999.90;;
61572;SDS011;47465;43.094;12.434;2023-08-20T05:30:55;1999.90;;;999.90;;
61572;SDS011;47465;43.094;12.434;2023-08-20T05:33:21;1999.90;;;999.90;;
61572;SDS011;47465;43.094;12.434;2023-08-20T05:35:48;1999.90;;;999.90;;
61572;SDS011;47465;43.094;12.434;2023-08-20T05:38:14;1999.90;;;999.90;;
61572;SDS011;47465;43.094;12.434;2023-08-20T05:40:40;1999.90;;;999.90;;
61572;SDS011;47465;43.094;12.434;2023-08-20T05:43:06;1999.90;;;999.90;;
61572;SDS011;47465;43.094;12.434;2023-08-20T05:45:33;1999.90;;;999.90;;
61572;SDS011;47465;43.094;12.434;2023-08-20T05:47:59;1999.90;;;999.90;;
61572;SDS011;47465;43.094;12.434;2023-08-20T05:50:25;1999.90;;;999.90;;
61572;SDS011;47465;43.094;12.434;2023-08-20T05:52:51;1999.90;;;999.90;;
61572;SDS011;47465;43.094;12.434;2023-08-20T05:55:17;1999.90;;;999.90;;
61572;SDS011;47465;43.094;12.434;2023-08-20T05:57:43;1999.90;;;999.90;;
61572;SDS011;47465;43.094;12.434;2023-08-20T06:00:10;1999.90;;;999.90;;
61572;SDS011;47465;43.094;12.434;2023-08-20T06:02:38;1999.90;;;999.90;;
61572;SDS011;47465;43.094;12.434;2023-08-20T06:05:04;1999.90;;;999.90;;
61572;SDS011;47465;43.094;12.434;2023-08-20T06:07:30;1999.90;;;999.90;;
61572;SDS011;47465;43.094;12.434;2023-08-20T06:09:56;1999.90;;;999.90;;
61572;SDS011;47465;43.094;12.434;2023-08-20T06:12:22;1999.90;;;999.90;;
61572;SDS011;47465;43.094;12.434;2023-08-20T06:14:48;1999.90;;;999.90;;
61572;SDS011;47465;43.094;12.434;2023-08-20T06:17:14;1999.90;;;999.90;;
61572;SDS011;47465;43.094;12.434;2023-08-20T06:19:42;1999.90;;;999.90;;
61572;SDS011;47465;43.094;12.434;2023-08-20T06:22:08;1999.90;;;999.90;;
61572;SDS011;47465;43.094;12.434;2023-08-20T06:24:34;1999.90;;;999.90;;
61572;SDS011;47465;43.094;12.434;2023-08-20T06:26:59;1999.90;;;999.90;;
61572;SDS011;47465;43.094;12.434;2023-08-20T06:29:25;1999.90;;;999.90;;
61572;SDS011;47465;43.094;12.434;2023-08-20T06:31:51;1999.90;;;999.90;;
61572;SDS011;47465;43.094;12.434;2023-08-20T06:34:17;1999.90;;;999.90;;
61572;SDS011;47465;43.094;12.434;2023-08-20T06:36:44;1999.90;;;999.90;;
61572;SDS011;47465;43.094;12.434;2023-08-20T06:39:10;1999.90;;;999.90;;
61572;SDS011;47465;43.094;12.434;2023-08-20T06:41:36;1999.90;;;999.90;;
61572;SDS011;47465;43.094;12.434;2023-08-20T06:44:02;1999.90;;;999.90;;
61572;SDS011;47465;43.094;12.434;2023-08-20T06:46:28;1999.90;;;999.90;;
61572;SDS011;47465;43.094;12.434;2023-08-20T06:48:54;1999.90;;;999.90;;
61572;SDS011;47465;43.094;12.434;2023-08-20T06:51:20;1999.90;;;999.90;;
61572;SDS011;47465;43.094;12.434;2023-08-20T06:53:48;1999.90;;;999.90;;
61572;SDS011;47465;43.094;12.434;2023-08-20T06:56:14;1999.90;;;999.90;;
61572;SDS011;47465;43.094;12.434;2023-08-20T07:02:00;1999.90;;;999.90;;
61572;SDS011;47465;43.094;12.434;2023-08-20T07:04:26;1999.90;;;999.90;;
61572;SDS011;47465;43.094;12.434;2023-08-20T07:06:51;1999.90;;;999.90;;
61572;SDS011;47465;43.094;12.434;2023-08-20T07:09:19;1999.90;;;999.90;;
61572;SDS011;47465;43.094;12.434;2023-08-20T07:11:44;1999.90;;;999.90;;
61572;SDS011;47465;43.094;12.434;2023-08-20T07:14:10;1999.90;;;999.90;;
61572;SDS011;47465;43.094;12.434;2023-08-20T07:16:36;1999.90;;;999.90;;
61572;SDS011;47465;43.094;12.434;2023-08-20T07:19:02;1506.60;;;755.97;;
61572;SDS011;47465;43.094;12.434;2023-08-20T07:21:28;33.22;;;29.92;;
61572;SDS011;47465;43.094;12.434;2023-08-20T07:23:54;31.10;;;27.90;;
61572;SDS011;47465;43.094;12.434;2023-08-20T07:26:21;31.63;;;28.50;;
61572;SDS011;47465;43.094;12.434;2023-08-20T07:28:47;30.75;;;27.45;;
61572;SDS011;47465;43.094;12.434;2023-08-20T07:31:40;31.10;;;27.77;;
61572;SDS011;47465;43.094;12.434;2023-08-20T07:34:06;30.70;;;27.55;;
61572;SDS011;47465;43.094;12.434;2023-08-20T07:36:32;30.20;;;27.17;;
61572;SDS011;47465;43.094;12.434;2023-08-20T07:38:59;33.13;;;29.98;;
61572;SDS011;47465;43.094;12.434;2023-08-20T07:44:16;35.03;;;31.35;;
61572;SDS011;47465;43.094;12.434;2023-08-20T07:46:42;33.90;;;30.60;;
61572;SDS011;47465;43.094;12.434;2023-08-20T07:49:08;31.48;;;28.40;;
61572;SDS011;47465;43.094;12.434;2023-08-20T07:51:34;31.20;;;27.85;;
61572;SDS011;47465;43.094;12.434;2023-08-20T07:54:00;34.95;;;30.83;;
61572;SDS011;47465;43.094;12.434;2023-08-20T07:56:26;32.90;;;29.52;;
61572;SDS011;47465;43.094;12.434;2023-08-20T07:58:52;30.25;;;27.23;;
61572;SDS011;47465;43.094;12.434;2023-08-20T08:01:19;30.05;;;27.00;;
61572;SDS011;47465;43.094;12.434;2023-08-20T08:03:45;29.83;;;26.95;;
61572;SDS011;47465;43.094;12.434;2023-08-20T08:06:11;30.25;;;27.17;;
61572;SDS011;47465;43.094;12.434;2023-08-20T08:08:42;31.42;;;28.33;;
61572;SDS011;47465;43.094;12.434;2023-08-20T08:11:09;32.15;;;29.10;;
61572;SDS011;47465;43.094;12.434;2023-08-20T08:13:35;31.15;;;28.05;;
61572;SDS011;47465;43.094;12.434;2023-08-20T08:16:01;31.17;;;28.02;;
61572;SDS011;47465;43.094;12.434;2023-08-20T08:18:29;29.95;;;27.08;;
61572;SDS011;47465;43.094;12.434;2023-08-20T08:20:54;32.65;;;29.55;;
61572;SDS011;47465;43.094;12.434;2023-08-20T08:23:20;30.63;;;27.50;;
61572;SDS011;47465;43.094;12.434;2023-08-20T08:25:46;30.48;;;27.42;;
61572;SDS011;47465;43.094;12.434;2023-08-20T08:28:12;29.60;;;26.48;;
61572;SDS011;47465;43.094;12.434;2023-08-20T08:30:38;28.70;;;25.95;;
61572;SDS011;47465;43.094;12.434;2023-08-20T08:33:08;27.98;;;25.00;;
61572;SDS011;47465;43.094;12.434;2023-08-20T08:35:35;28.48;;;25.75;;
61572;SDS011;47465;43.094;12.434;2023-08-20T08:38:01;29.42;;;26.48;;
61572;SDS011;47465;43.094;12.434;2023-08-20T08:40:29;29.50;;;26.65;;
61572;SDS011;47465;43.094;12.434;2023-08-20T08:42:55;29.85;;;27.15;;
61572;SDS011;47465;43.094;12.434;2023-08-20T08:45:21;29.85;;;26.85;;
61572;SDS011;47465;43.094;12.434;2023-08-20T08:47:48;30.15;;;27.45;;
61572;SDS011;47465;43.094;12.434;2023-08-20T08:50:14;31.27;;;26.38;;
61572;SDS011;47465;43.094;12.434;2023-08-20T08:52:42;29.88;;;27.20;;
61572;SDS011;47465;43.094;12.434;2023-08-20T08:55:11;28.67;;;26.15;;
61572;SDS011;47465;43.094;12.434;2023-08-20T08:57:37;30.40;;;27.52;;
61572;SDS011;47465;43.094;12.434;2023-08-20T09:00:04;29.48;;;26.65;;
61572;SDS011;47465;43.094;12.434;2023-08-20T09:02:30;28.70;;;26.08;;
61572;SDS011;47465;43.094;12.434;2023-08-20T09:04:56;29.88;;;27.20;;
61572;SDS011;47465;43.094;12.434;2023-08-20T09:07:23;29.38;;;26.48;;
61572;SDS011;47465;43.094;12.434;2023-08-20T09:09:50;28.40;;;25.80;;
61572;SDS011;47465;43.094;12.434;2023-08-20T09:12:22;29.13;;;26.23;;
61572;SDS011;47465;43.094;12.434;2023-08-20T09:14:50;28.13;;;25.50;;
61572;SDS011;47465;43.094;12.434;2023-08-20T09:17:17;26.70;;;24.25;;
61572;SDS011;47465;43.094;12.434;2023-08-20T09:19:44;28.23;;;25.60;;
61572;SDS011;47465;43.094;12.434;2023-08-20T09:22:11;30.13;;;27.05;;
61572;SDS011;47465;43.094;12.434;2023-08-20T09:24:39;25.80;;;23.27;;
61572;SDS011;47465;43.094;12.434;2023-08-20T09:27:12;28.08;;;25.25;;
61572;SDS011;47465;43.094;12.434;2023-08-20T09:29:45;27.23;;;24.58;;
61572;SDS011;47465;43.094;12.434;2023-08-20T09:32:15;26.88;;;24.20;;
61572;SDS011;47465;43.094;12.434;2023-08-20T09:34:43;27.70;;;24.85;;
61572;SDS011;47465;43.094;12.434;2023-08-20T09:37:09;26.67;;;24.48;;
61572;SDS011;47465;43.094;12.434;2023-08-20T09:39:35;29.02;;;26.17;;
61572;SDS011;47465;43.094;12.434;2023-08-20T09:42:01;28.35;;;25.90;;
61572;SDS011;47465;43.094;12.434;2023-08-20T09:44:32;26.63;;;24.17;;
61572;SDS011;47465;43.094;12.434;2023-08-20T09:46:59;26.02;;;23.83;;
61572;SDS011;47465;43.094;12.434;2023-08-20T09:49:28;25.38;;;23.38;;
61572;SDS011;47465;43.094;12.434;2023-08-20T09:54:23;25.52;;;23.50;;
61572;SDS011;47465;43.094;12.434;2023-08-20T09:56:58;28.27;;;25.98;;
61572;SDS011;47465;43.094;12.434;2023-08-20T09:59:27;29.23;;;27.05;;
61572;SDS011;47465;43.094;12.434;2023-08-20T10:01:55;27.10;;;25.05;;
61572;SDS011;47465;43.094;12.434;2023-08-20T10:04:22;26.70;;;24.63;;
61572;SDS011;47465;43.094;12.434;2023-08-20T10:06:48;24.48;;;22.63;;
61572;SDS011;47465;43.094;12.434;2023-08-20T10:09:15;25.65;;;23.58;;
61572;SDS011;47465;43.094;12.434;2023-08-20T10:11:43;24.10;;;21.92;;
61572;SDS011;47465;43.094;12.434;2023-08-20T10:14:09;25.45;;;23.15;;
61572;SDS011;47465;43.094;12.434;2023-08-20T10:16:36;23.80;;;21.85;;
61572;SDS011;47465;43.094;12.434;2023-08-20T10:19:03;24.47;;;22.33;;
61572;SDS011;47465;43.094;12.434;2023-08-20T10:21:29;24.52;;;22.63;;
61572;SDS011;47465;43.094;12.434;2023-08-20T10:23:55;24.38;;;22.58;;
61572;SDS011;47465;43.094;12.434;2023-08-20T10:26:21;25.35;;;23.45;;
61572;SDS011;47465;43.094;12.434;2023-08-20T10:28:49;23.08;;;21.17;;
61572;SDS011;47465;43.094;12.434;2023-08-20T10:31:16;24.23;;;22.40;;
61572;SDS011;47465;43.094;12.434;2023-08-20T10:33:49;24.63;;;22.80;;
61572;SDS011;47465;43.094;12.434;2023-08-20T10:36:20;24.60;;;22.63;;
61572;SDS011;47465;43.094;12.434;2023-08-20T10:38:48;25.35;;;23.15;;
61572;SDS011;47465;43.094;12.434;2023-08-20T10:41:15;23.73;;;21.92;;
61572;SDS011;47465;43.094;12.434;2023-08-20T10:43:46;24.45;;;21.20;;
61572;SDS011;47465;43.094;12.434;2023-08-20T10:46:14;22.75;;;20.77;;
61572;SDS011;47465;43.094;12.434;2023-08-20T10:48:41;22.55;;;20.77;;
61572;SDS011;47465;43.094;12.434;2023-08-20T10:51:13;21.42;;;19.60;;
61572;SDS011;47465;43.094;12.434;2023-08-20T10:53:40;22.10;;;20.20;;
61572;SDS011;47465;43.094;12.434;2023-08-20T10:56:08;22.77;;;20.80;;
61572;SDS011;47465;43.094;12.434;2023-08-20T10:58:35;22.10;;;20.05;;
61572;SDS011;47465;43.094;12.434;2023-08-20T11:01:16;20.92;;;19.25;;
61572;SDS011;47465;43.094;12.434;2023-08-20T11:03:47;21.63;;;19.83;;
61572;SDS011;47465;43.094;12.434;2023-08-20T11:06:15;20.92;;;19.45;;
61572;SDS011;47465;43.094;12.434;2023-08-20T11:08:41;22.00;;;20.25;;
61572;SDS011;47465;43.094;12.434;2023-08-20T11:11:08;22.40;;;20.63;;
61572;SDS011;47465;43.094;12.434;2023-08-20T11:13:36;22.35;;;20.67;;
61572;SDS011;47465;43.094;12.434;2023-08-20T11:16:02;23.52;;;21.50;;
61572;SDS011;47465;43.094;12.434;2023-08-20T11:18:29;23.75;;;21.58;;
61572;SDS011;47465;43.094;12.434;2023-08-20T11:20:56;21.80;;;20.00;;
61572;SDS011;47465;43.094;12.434;2023-08-20T11:23:24;22.85;;;20.95;;
61572;SDS011;47465;43.094;12.434;2023-08-20T11:25:50;22.83;;;20.87;;
61572;SDS011;47465;43.094;12.434;2023-08-20T11:28:16;23.10;;;21.17;;
61572;SDS011;47465;43.094;12.434;2023-08-20T11:30:42;23.88;;;22.15;;
61572;SDS011;47465;43.094;12.434;2023-08-20T11:33:08;23.23;;;21.55;;
61572;SDS011;47465;43.094;12.434;2023-08-20T11:35:34;21.67;;;19.88;;
61572;SDS011;47465;43.094;12.434;2023-08-20T11:38:02;22.27;;;20.38;;
61572;SDS011;47465;43.094;12.434;2023-08-20T11:40:30;22.07;;;20.43;;
61572;SDS011;47465;43.094;12.434;2023-08-20T11:42:55;23.77;;;21.87;;
61572;SDS011;47465;43.094;12.434;2023-08-20T11:45:21;23.50;;;21.83;;
61572;SDS011;47465;43.094;12.434;2023-08-20T11:47:47;23.50;;;21.75;;
61572;SDS011;47465;43.094;12.434;2023-08-20T11:50:13;22.15;;;20.35;;
61572;SDS011;47465;43.094;12.434;2023-08-20T11:52:39;23.65;;;21.70;;
61572;SDS011;47465;43.094;12.434;2023-08-20T11:55:05;23.25;;;21.40;;
61572;SDS011;47465;43.094;12.434;2023-08-20T11:57:33;22.70;;;20.35;;
61572;SDS011;47465;43.094;12.434;2023-08-20T11:59:59;23.03;;;21.13;;
61572;SDS011;47465;43.094;12.434;2023-08-20T12:02:29;22.67;;;20.90;;
61572;SDS011;47465;43.094;12.434;2023-08-20T12:04:55;22.23;;;20.52;;
61572;SDS011;47465;43.094;12.434;2023-08-20T12:07:24;21.65;;;19.73;;
61572;SDS011;47465;43.094;12.434;2023-08-20T12:09:51;21.38;;;19.83;;
61572;SDS011;47465;43.094;12.434;2023-08-20T12:12:18;21.83;;;20.23;;
61572;SDS011;47465;43.094;12.434;2023-08-20T12:14:47;20.90;;;19.33;;
61572;SDS011;47465;43.094;12.434;2023-08-20T12:17:16;22.60;;;21.13;;
61572;SDS011;47465;43.094;12.434;2023-08-20T12:19:42;21.23;;;19.73;;
61572;SDS011;47465;43.094;12.434;2023-08-20T12:22:08;22.88;;;21.10;;
61572;SDS011;47465;43.094;12.434;2023-08-20T12:24:34;21.40;;;19.80;;
61572;SDS011;47465;43.094;12.434;2023-08-20T12:27:00;21.25;;;19.65;;
61572;SDS011;47465;43.094;12.434;2023-08-20T12:29:25;21.40;;;19.90;;
61572;SDS011;47465;43.094;12.434;2023-08-20T12:31:53;20.40;;;18.90;;
61572;SDS011;47465;43.094;12.434;2023-08-20T12:34:19;22.07;;;20.17;;
61572;SDS011;47465;43.094;12.434;2023-08-20T12:36:46;21.42;;;19.83;;
61572;SDS011;47465;43.094;12.434;2023-08-20T12:39:14;19.27;;;17.77;;
61572;SDS011;47465;43.094;12.434;2023-08-20T12:41:39;20.83;;;19.33;;
61572;SDS011;47465;43.094;12.434;2023-08-20T12:44:05;20.67;;;19.17;;
61572;SDS011;47465;43.094;12.434;2023-08-20T12:46:31;20.38;;;18.88;;
61572;SDS011;47465;43.094;12.434;2023-08-20T12:48:58;20.25;;;18.50;;
61572;SDS011;47465;43.094;12.434;2023-08-20T12:51:24;21.48;;;19.88;;
61572;SDS011;47465;43.094;12.434;2023-08-20T12:53:51;21.65;;;20.05;;
61572;SDS011;47465;43.094;12.434;2023-08-20T12:56:16;19.63;;;18.23;;
61572;SDS011;47465;43.094;12.434;2023-08-20T12:58:43;19.92;;;18.42;;
61572;SDS011;47465;43.094;12.434;2023-08-20T13:01:09;20.02;;;18.42;;
61572;SDS011;47465;43.094;12.434;2023-08-20T13:03:35;20.50;;;18.98;;
61572;SDS011;47465;43.094;12.434;2023-08-20T13:06:04;19.40;;;17.70;;
61572;SDS011;47465;43.094;12.434;2023-08-20T13:08:31;21.38;;;19.67;;
61572;SDS011;47465;43.094;12.434;2023-08-20T13:10:57;19.13;;;17.75;;
61572;SDS011;47465;43.094;12.434;2023-08-20T13:13:25;18.88;;;17.33;;
61572;SDS011;47465;43.094;12.434;2023-08-20T13:15:52;19.42;;;17.92;;
61572;SDS011;47465;43.094;12.434;2023-08-20T13:18:19;20.83;;;19.27;;
61572;SDS011;47465;43.094;12.434;2023-08-20T13:20:50;21.48;;;19.88;;
61572;SDS011;47465;43.094;12.434;2023-08-20T13:23:18;19.77;;;18.02;;
61572;SDS011;47465;43.094;12.434;2023-08-20T13:25:44;22.00;;;20.50;;
61572;SDS011;47465;43.094;12.434;2023-08-20T13:28:10;19.35;;;17.95;;
61572;SDS011;47465;43.094;12.434;2023-08-20T13:30:35;21.05;;;19.42;;
61572;SDS011;47465;43.094;12.434;2023-08-20T13:33:02;19.95;;;18.52;;
61572;SDS011;47465;43.094;12.434;2023-08-20T13:35:29;20.60;;;19.10;;
61572;SDS011;47465;43.094;12.434;2023-08-20T13:37:54;21.00;;;19.58;;
61572;SDS011;47465;43.094;12.434;2023-08-20T13:40:22;22.42;;;20.40;;
61572;SDS011;47465;43.094;12.434;2023-08-20T13:42:47;20.93;;;19.37;;
61572;SDS011;47465;43.094;12.434;2023-08-20T13:45:13;20.02;;;18.52;;
61572;SDS011;47465;43.094;12.434;2023-08-20T13:47:39;20.40;;;18.75;;
61572;SDS011;47465;43.094;12.434;2023-08-20T13:50:05;18.50;;;17.20;;
61572;SDS011;47465;43.094;12.434;2023-08-20T13:52:31;19.98;;;18.52;;
61572;SDS011;47465;43.094;12.434;2023-08-20T13:54:57;19.55;;;18.05;;
61572;SDS011;47465;43.094;12.434;2023-08-20T13:57:24;18.77;;;17.27;;
61572;SDS011;47465;43.094;12.434;2023-08-20T13:59:50;19.90;;;18.50;;
61572;SDS011;47465;43.094;12.434;2023-08-20T14:02:16;20.13;;;18.33;;
61572;SDS011;47465;43.094;12.434;2023-08-20T14:04:42;19.83;;;18.23;;
61572;SDS011;47465;43.094;12.434;2023-08-20T14:07:08;18.85;;;17.27;;